Time;durP1;ratioP1;P1;durP2;ratioP2;P2;SDS_P1;SDS_P2;PMS_P1;PMS_P2;Temp;Humidity;BMP_temperature;BMP_pressure;BME280_temperature;BME280_humidity;BME280_pressure;Samples;Min_cycle;Max_cycle;Signal;HPM_P1;HPM_P2
2022/04/02 00:01:08;;;;;;;18.30;16.42;;;8.90;99.90;;;;;;5034620;28;20478;-81
2022/04/02 00:03:34;;;;;;;15.95;14.50;;;8.80;99.90;;;;;;5035826;28;20026;-81
2022/04/02 00:06:01;;;;;;;16.60;14.88;;;8.80;99.90;;;;;;5035085;28;20431;-80
2022/04/02 00:08:28;;;;;;;18.13;16.27;;;8.80;99.90;;;;;;5025141;28;20041;-80
2022/04/02 00:10:54;;;;;;;16.92;15.30;;;8.80;99.90;;;;;;5016398;28;20383;-80
2022/04/02 00:13:20;;;;;;;16.00;14.50;;;8.80;99.90;;;;;;5034279;28;20034;-80
2022/04/02 00:15:47;;;;;;;16.40;14.80;;;8.80;99.90;;;;;;5034554;28;20390;-83
2022/04/02 00:18:13;;;;;;;19.42;15.15;;;8.80;99.90;;;;;;5034465;28;20025;-80
2022/04/02 00:20:39;;;;;;;15.82;14.43;;;8.80;99.90;;;;;;5034666;28;20029;-80
2022/04/02 00:25:51;;;;;;;16.92;14.32;;;8.80;99.90;;;;;;5022897;28;20513;-84
2022/04/02 00:28:17;;;;;;;17.15;15.15;;;8.80;99.90;;;;;;5036719;28;20034;-83
2022/04/02 00:30:43;;;;;;;16.42;14.98;;;8.80;99.90;;;;;;5042699;28;20041;-82
2022/04/02 00:33:10;;;;;;;27.23;16.02;;;8.80;99.90;;;;;;5019894;28;20052;-83
2022/04/02 00:35:37;;;;;;;15.93;14.55;;;8.80;99.90;;;;;;5024674;28;20480;-84
2022/04/02 00:38:03;;;;;;;16.17;14.77;;;8.80;99.90;;;;;;5043582;28;20042;-85
2022/04/02 00:40:30;;;;;;;15.98;14.57;;;8.80;99.90;;;;;;5030873;28;20048;-83
2022/04/02 00:42:56;;;;;;;17.83;15.27;;;8.80;99.90;;;;;;5015802;28;20040;-79
2022/04/02 00:45:22;;;;;;;17.10;15.52;;;8.90;99.90;;;;;;5001275;28;20042;-82
2022/04/02 00:47:48;;;;;;;17.30;15.80;;;8.90;99.90;;;;;;4997467;28;20050;-84
2022/04/02 00:50:15;;;;;;;17.13;15.43;;;8.90;99.90;;;;;;5032886;28;20029;-82
2022/04/02 00:52:42;;;;;;;18.83;17.08;;;8.90;99.90;;;;;;5015081;28;20464;-81
2022/04/02 00:55:08;;;;;;;17.52;16.02;;;8.90;99.90;;;;;;5016640;28;20033;-81
2022/04/02 00:57:35;;;;;;;19.48;17.73;;;8.90;99.90;;;;;;5016066;28;20053;-80
2022/04/02 01:00:03;;;;;;;17.17;15.48;;;8.90;99.90;;;;;;5030659;28;20029;-82
2022/04/02 01:02:29;;;;;;;17.73;16.23;;;8.90;99.90;;;;;;5014615;28;20048;-81
2022/04/02 01:04:55;;;;;;;18.35;16.65;;;8.90;99.90;;;;;;5015083;28;20057;-81
2022/04/02 01:07:24;;;;;;;18.63;16.15;;;8.90;99.90;;;;;;5000431;28;20046;-81
2022/04/02 01:09:53;;;;;;;16.52;15.10;;;8.90;99.90;;;;;;5015000;28;20037;-79
2022/04/02 01:12:25;;;;;;;16.65;14.68;;;8.90;99.90;;;;;;5013772;28;20044;-81
2022/04/02 01:14:52;;;;;;;16.10;14.77;;;8.90;99.90;;;;;;5010839;28;20057;-81
2022/04/02 01:17:31;;;;;;;16.63;15.02;;;8.90;99.90;;;;;;4995816;28;20474;-79
2022/04/02 01:19:58;;;;;;;17.70;16.13;;;8.90;99.90;;;;;;5011354;28;20038;-79
2022/04/02 01:22:30;;;;;;;15.55;14.25;;;8.90;99.90;;;;;;5030843;28;20513;-79
2022/04/02 01:25:00;;;;;;;17.00;15.40;;;8.90;99.90;;;;;;5007952;28;20038;-84
2022/04/02 01:27:32;;;;;;;16.73;15.32;;;8.90;99.90;;;;;;4999479;28;20394;-81
2022/04/02 01:29:59;;;;;;;16.52;15.02;;;8.90;99.90;;;;;;5014718;28;20046;-81
2022/04/02 01:32:26;;;;;;;16.45;14.70;;;8.90;99.90;;;;;;4996423;28;20045;-80
2022/04/02 01:35:03;;;;;;;18.25;15.40;;;8.90;99.90;;;;;;5014263;28;20042;-79
2022/04/02 01:37:29;;;;;;;15.73;14.23;;;8.90;99.90;;;;;;5030278;28;20034;-79
2022/04/02 01:40:00;;;;;;;14.32;13.13;;;8.90;99.90;;;;;;5014512;28;20052;-80
2022/04/02 01:42:37;;;;;;;16.08;14.63;;;8.80;99.90;;;;;;5013565;28;20037;-81
2022/04/02 01:45:08;;;;;;;15.45;14.25;;;8.90;99.90;;;;;;4993862;28;20050;-80
2022/04/02 01:47:40;;;;;;;16.05;14.15;;;8.90;99.90;;;;;;5022473;28;20410;-81
2022/04/02 01:50:08;;;;;;;14.10;12.73;;;8.80;99.90;;;;;;5013826;28;20033;-83
2022/04/02 01:52:39;;;;;;;16.42;14.70;;;8.80;99.90;;;;;;5031058;28;20030;-82
2022/04/02 01:55:11;;;;;;;;;;;8.80;99.90;;;;;;4997293;28;20463;-81
2022/04/02 01:57:39;;;;;;;14.15;12.77;;;8.80;99.90;;;;;;5014763;28;20282;-83
2022/04/02 02:00:11;;;;;;;13.60;12.23;;;8.80;99.90;;;;;;4997579;28;20284;-82
2022/04/02 02:02:40;;;;;;;14.35;13.13;;;8.90;99.90;;;;;;5009992;28;20045;-80
2022/04/02 02:05:08;;;;;;;14.27;12.38;;;8.80;99.90;;;;;;5009123;28;20130;-80
2022/04/02 02:07:34;;;;;;;13.90;12.45;;;8.80;99.90;;;;;;5011429;28;20042;-81
2022/04/02 02:10:01;;;;;;;19.17;12.27;;;8.80;99.90;;;;;;5011195;28;20048;-80
2022/04/02 02:12:56;;;;;;;13.27;12.07;;;8.80;99.90;;;;;;5008257;28;20033;-82
2022/04/02 02:15:30;;;;;;;13.15;12.00;;;8.80;99.90;;;;;;4998993;28;20041;-81
2022/04/02 02:18:01;;;;;;;12.45;11.35;;;8.80;99.90;;;;;;5007615;28;20050;-82
2022/04/02 02:20:27;;;;;;;12.60;11.43;;;8.80;99.90;;;;;;5014809;28;20037;-82
2022/04/02 02:22:53;;;;;;;12.30;11.23;;;8.80;99.90;;;;;;5012746;28;20041;-84
2022/04/02 02:25:21;;;;;;;12.07;10.90;;;8.80;99.90;;;;;;5026486;28;20045;-81
2022/04/02 02:27:52;;;;;;;11.82;10.73;;;8.80;99.90;;;;;;5010331;28;20073;-82
2022/04/02 02:30:22;;;;;;;11.90;10.70;;;8.70;99.90;;;;;;5011320;28;20042;-79
2022/04/02 02:32:49;;;;;;;11.13;10.23;;;8.80;99.90;;;;;;5008747;28;20059;-83
2022/04/02 02:38:08;;;;;;;12.52;11.38;;;8.70;99.90;;;;;;5009693;28;20053;-81
2022/04/02 02:40:41;;;;;;;11.68;10.48;;;8.80;99.90;;;;;;4995743;28;20054;-81
2022/04/02 02:43:10;;;;;;;10.95;9.98;;;8.80;99.90;;;;;;5009244;28;20493;-79
2022/04/02 02:45:40;;;;;;;12.25;11.07;;;8.80;99.90;;;;;;5010981;28;20467;-80
2022/04/02 02:48:07;;;;;;;10.70;9.60;;;8.80;99.90;;;;;;5010344;28;20042;-79
2022/04/02 02:50:51;;;;;;;9.60;8.70;;;8.70;99.90;;;;;;4995955;28;20042;-81
2022/04/02 02:53:18;;;;;;;14.73;8.93;;;8.70;99.90;;;;;;4994246;28;20038;-80
2022/04/02 02:55:46;;;;;;;11.38;10.32;;;8.80;99.90;;;;;;5011600;28;20053;-80
2022/04/02 02:58:13;;;;;;;10.68;9.48;;;8.80;99.90;;;;;;5014182;28;20057;-82
2022/04/02 03:00:40;;;;;;;10.30;9.25;;;8.70;99.90;;;;;;5009751;28;20034;-83
2022/04/02 03:03:12;;;;;;;10.10;9.00;;;8.70;99.90;;;;;;5008411;28;20483;-81
2022/04/02 03:05:40;;;;;;;9.63;8.73;;;8.70;99.90;;;;;;5013895;28;20045;-81
2022/04/02 03:08:10;;;;;;;11.77;9.73;;;8.70;99.90;;;;;;5020774;28;20037;-80
2022/04/02 03:10:45;;;;;;;9.90;8.90;;;8.80;99.90;;;;;;5003723;28;20045;-80
2022/04/02 03:13:16;;;;;;;11.45;8.77;;;8.90;99.90;;;;;;5014594;28;20045;-80
2022/04/02 03:15:43;;;;;;;13.48;8.75;;;8.70;99.90;;;;;;5014881;28;20050;-81
2022/04/02 03:18:10;;;;;;;8.70;7.97;;;8.80;99.90;;;;;;5016438;28;20038;-80
2022/04/02 03:20:45;;;;;;;9.35;8.45;;;8.80;99.90;;;;;;5017839;28;20046;-81
2022/04/02 03:23:16;;;;;;;9.45;8.60;;;8.80;99.90;;;;;;5002312;28;20048;-80
2022/04/02 03:25:43;;;;;;;10.50;9.50;;;8.90;99.90;;;;;;5022018;28;20046;-78
2022/04/02 03:28:10;;;;;;;12.48;8.80;;;8.80;99.90;;;;;;5005044;28;20053;-80
2022/04/02 03:30:38;;;;;;;9.68;8.88;;;8.80;99.90;;;;;;5016132;28;20133;-79
2022/04/02 03:33:04;;;;;;;10.48;9.23;;;8.80;99.90;;;;;;5028350;28;20041;-80
2022/04/02 03:35:31;;;;;;;9.35;8.52;;;8.80;99.90;;;;;;5035567;28;20045;-79
2022/04/02 03:37:58;;;;;;;10.95;8.68;;;8.80;99.90;;;;;;4997365;28;20498;-80
2022/04/02 03:40:26;;;;;;;10.85;9.15;;;8.80;99.90;;;;;;5010332;28;20045;-79
2022/04/02 03:42:54;;;;;;;9.90;8.90;;;8.90;99.90;;;;;;5027182;28;20048;-80
2022/04/02 03:45:26;;;;;;;8.85;8.05;;;8.80;99.90;;;;;;5029177;28;20487;-81
2022/04/02 03:47:57;;;;;;;13.25;9.07;;;8.90;99.90;;;;;;5014623;28;20509;-78
2022/04/02 03:50:24;;;;;;;10.38;8.70;;;8.90;99.90;;;;;;5028086;28;20048;-78
2022/04/02 03:52:54;;;;;;;9.75;8.95;;;8.90;99.90;;;;;;5015194;28;20379;-80
2022/04/02 03:55:26;;;;;;;12.95;10.18;;;8.90;99.90;;;;;;5016314;28;20049;-79
2022/04/02 03:57:52;;;;;;;8.95;8.15;;;8.90;99.90;;;;;;5015954;28;20049;-83
2022/04/02 04:00:22;;;;;;;9.80;8.90;;;8.90;99.90;;;;;;4998189;28;20041;-80
2022/04/02 04:02:58;;;;;;;17.13;10.18;;;8.90;99.90;;;;;;5009271;28;20410;-80
2022/04/02 04:05:28;;;;;;;13.32;9.38;;;8.90;99.90;;;;;;5016210;28;20394;-79
2022/04/02 04:07:57;;;;;;;11.93;10.82;;;9.00;99.90;;;;;;5015602;28;20046;-80
2022/04/02 04:10:25;;;;;;;11.20;10.10;;;8.90;99.90;;;;;;5000348;28;20479;-80
2022/04/02 04:12:53;;;;;;;11.50;9.40;;;9.00;99.90;;;;;;5011597;28;20045;-82
2022/04/02 04:15:24;;;;;;;10.07;9.07;;;9.00;99.90;;;;;;5000883;28;20048;-79
2022/04/02 04:17:50;;;;;;;11.27;10.10;;;9.00;99.90;;;;;;4999671;28;20053;-81
2022/04/02 04:20:18;;;;;;;10.30;9.40;;;9.00;99.90;;;;;;5016210;28;20060;-80
2022/04/02 04:22:44;;;;;;;10.90;9.90;;;9.00;99.90;;;;;;5032860;28;20127;-79
2022/04/02 04:25:15;;;;;;;8.67;7.87;;;9.00;99.90;;;;;;5014268;28;20395;-78
2022/04/02 04:27:44;;;;;;;13.63;11.07;;;9.00;99.90;;;;;;5012130;28;20050;-79
2022/04/02 04:30:13;;;;;;;11.90;10.73;;;9.10;99.90;;;;;;4991372;28;20618;-80
2022/04/02 04:32:40;;;;;;;9.98;9.07;;;9.00;99.90;;;;;;5010341;28;20046;-80
2022/04/02 04:35:07;;;;;;;11.68;10.55;;;9.00;99.90;;;;;;5011715;28;20037;-81
2022/04/02 04:37:37;;;;;;;11.57;10.15;;;9.10;99.90;;;;;;5011046;28;20045;-80
2022/04/02 04:40:12;;;;;;;13.90;10.75;;;9.10;99.90;;;;;;5012167;28;20038;-81
2022/04/02 04:42:40;;;;;;;12.07;10.98;;;9.00;99.90;;;;;;5010665;28;20375;-80
2022/04/02 04:45:09;;;;;;;12.48;10.45;;;9.10;99.90;;;;;;5012303;28;20053;-80
2022/04/02 04:47:37;;;;;;;11.75;10.70;;;9.20;99.90;;;;;;4999623;28;20077;-81
2022/04/02 04:50:04;;;;;;;11.40;10.40;;;9.10;99.90;;;;;;5010758;28;20042;-81
2022/04/02 04:52:33;;;;;;;11.88;10.77;;;9.20;99.90;;;;;;5010987;28;20046;-79
2022/04/02 04:55:04;;;;;;;11.90;10.70;;;9.20;99.90;;;;;;4996159;28;20048;-81
2022/04/02 04:57:32;;;;;;;12.35;11.15;;;9.00;99.90;;;;;;5018070;28;20049;-79
2022/04/02 05:00:06;;;;;;;12.98;11.70;;;8.80;99.90;;;;;;5011145;28;20496;-81
2022/04/02 05:02:35;;;;;;;11.60;10.57;;;8.40;99.90;;;;;;5010621;28;20045;-81
2022/04/02 05:05:03;;;;;;;13.35;11.15;;;8.30;99.90;;;;;;5011998;28;20048;-79
2022/04/02 05:07:31;;;;;;;12.07;10.88;;;8.30;99.90;;;;;;5010072;28;20046;-83
2022/04/02 05:10:00;;;;;;;18.83;11.52;;;8.20;99.90;;;;;;5009091;28;20041;-83
2022/04/02 05:12:28;;;;;;;13.18;11.88;;;8.10;99.90;;;;;;5012752;28;20049;-83
2022/04/02 05:14:55;;;;;;;12.60;11.35;;;8.00;99.90;;;;;;4998336;28;20049;-82
2022/04/02 05:17:24;;;;;;;13.93;11.40;;;7.90;99.90;;;;;;5013976;28;20042;-83
2022/04/02 05:19:52;;;;;;;10.15;9.27;;;7.60;99.90;;;;;;5009663;28;20046;-82
2022/04/02 05:22:19;;;;;;;13.60;9.27;;;7.40;99.90;;;;;;4994524;28;20046;-80
2022/04/02 05:24:49;;;;;;;11.60;9.93;;;7.00;99.90;;;;;;5014042;28;20383;-82
2022/04/02 05:27:17;;;;;;;11.68;10.57;;;6.40;99.90;;;;;;5011255;28;20045;-81
2022/04/02 05:29:44;;;;;;;12.30;11.10;;;6.10;99.90;;;;;;5010818;28;20046;-80
2022/04/02 05:32:10;;;;;;;13.02;11.02;;;5.90;99.90;;;;;;5011531;28;20383;-81
2022/04/02 05:34:40;;;;;;;10.13;9.32;;;5.60;99.90;;;;;;5011410;28;20107;-80
2022/04/02 05:37:06;;;;;;;9.48;8.55;;;5.50;99.90;;;;;;5011130;28;20030;-80
2022/04/02 05:39:33;;;;;;;9.90;8.90;;;5.20;99.90;;;;;;5011265;28;20042;-79
2022/04/02 05:42:00;;;;;;;14.48;10.73;;;4.80;99.90;;;;;;5011443;28;20034;-82
2022/04/02 05:44:26;;;;;;;10.65;9.57;;;4.40;99.90;;;;;;4992442;28;20050;-80
2022/04/02 05:46:52;;;;;;;15.82;10.00;;;3.90;99.90;;;;;;5010923;28;20046;-83
2022/04/02 05:49:19;;;;;;;10.25;9.45;;;3.60;99.90;;;;;;5012904;28;20498;-81
2022/04/02 05:51:45;;;;;;;11.40;9.75;;;3.30;99.90;;;;;;5007793;28;20391;-82
2022/04/02 05:54:11;;;;;;;10.35;9.38;;;2.80;99.90;;;;;;5012073;28;20045;-83
2022/04/02 05:56:38;;;;;;;10.18;9.13;;;2.80;99.90;;;;;;5010878;28;20037;-81
2022/04/02 05:59:05;;;;;;;16.42;10.20;;;2.70;99.90;;;;;;4988660;28;20459;-84
2022/04/02 06:01:37;;;;;;;11.43;10.25;;;2.50;99.90;;;;;;5008833;28;20042;-84
2022/04/02 06:04:04;;;;;;;20.30;10.80;;;2.60;99.90;;;;;;5017350;28;20038;-82
2022/04/02 06:06:30;;;;;;;21.02;10.18;;;2.40;99.90;;;;;;5010317;28;20049;-82
2022/04/02 06:08:57;;;;;;;11.18;10.05;;;2.50;99.90;;;;;;4999943;28;20042;-83
2022/04/02 06:11:24;;;;;;;11.18;10.05;;;2.50;99.90;;;;;;4982362;28;20141;-81
2022/04/02 06:13:50;;;;;;;12.20;9.55;;;2.40;99.90;;;;;;5010116;28;20406;-82
2022/04/02 06:16:17;;;;;;;11.55;10.38;;;2.20;99.90;;;;;;5006426;28;20460;-78
2022/04/02 06:18:43;;;;;;;14.52;8.90;;;2.20;99.90;;;;;;4998413;28;20030;-79
2022/04/02 06:21:11;;;;;;;10.25;9.10;;;2.10;99.90;;;;;;5007202;28;20030;-79
2022/04/02 06:23:38;;;;;;;15.13;10.60;;;1.90;99.90;;;;;;5027199;28;20053;-77
2022/04/02 06:26:04;;;;;;;13.55;10.55;;;1.90;99.90;;;;;;5020434;28;20050;-78
2022/04/02 06:28:30;;;;;;;10.90;9.88;;;1.80;99.90;;;;;;5027895;28;20048;-82
2022/04/02 06:30:57;;;;;;;16.10;11.05;;;1.60;99.90;;;;;;5005488;28;20037;-82
2022/04/02 06:33:27;;;;;;;11.65;10.48;;;1.60;99.90;;;;;;5010721;28;20476;-80
2022/04/02 06:35:53;;;;;;;11.80;10.68;;;1.60;99.90;;;;;;5034812;28;20041;-82
2022/04/02 06:38:20;;;;;;;10.35;9.30;;;1.50;99.90;;;;;;5016558;28;20053;-80
2022/04/02 06:40:46;;;;;;;10.63;8.57;;;1.50;99.90;;;;;;5032397;28;20037;-81
2022/04/02 06:43:13;;;;;;;17.67;9.48;;;1.50;99.90;;;;;;5029030;28;20361;-83
2022/04/02 06:45:52;;;;;;;9.48;8.48;;;1.50;99.90;;;;;;5019955;28;20045;-79
2022/04/02 06:48:18;;;;;;;9.73;8.05;;;1.50;99.90;;;;;;5020682;28;20356;-79
2022/04/02 06:50:45;;;;;;;9.35;8.50;;;1.40;99.90;;;;;;5040993;28;20483;-79
2022/04/02 06:53:11;;;;;;;12.07;8.02;;;1.40;99.90;;;;;;5038507;28;20038;-79
2022/04/02 06:55:38;;;;;;;9.60;8.07;;;1.30;99.90;;;;;;5020560;28;20048;-77
2022/04/02 06:58:04;;;;;;;8.48;7.68;;;1.30;99.90;;;;;;4992280;28;20046;-77
2022/04/02 07:00:31;;;;;;;8.68;7.80;;;1.20;99.90;;;;;;5003268;28;20060;-78
2022/04/02 07:02:57;;;;;;;8.23;7.50;;;1.00;99.90;;;;;;5011714;28;20038;-78
2022/04/02 07:05:23;;;;;;;6.88;6.28;;;0.90;99.90;;;;;;5020602;28;20029;-78
2022/04/02 07:07:49;;;;;;;8.90;6.78;;;0.90;99.90;;;;;;5020382;28;20033;-78
2022/04/02 07:10:16;;;;;;;12.80;7.32;;;0.90;99.90;;;;;;5014935;28;20044;-78
2022/04/02 07:12:42;;;;;;;10.25;7.57;;;0.90;99.90;;;;;;5014842;28;20040;-78
2022/04/02 07:15:10;;;;;;;13.00;7.97;;;0.90;99.90;;;;;;5038678;28;20033;-78
2022/04/02 07:17:36;;;;;;;8.40;7.30;;;0.90;99.90;;;;;;5035985;28;20064;-77
2022/04/02 07:20:03;;;;;;;9.25;6.47;;;0.90;99.90;;;;;;5037613;28;20030;-77
2022/04/02 07:22:29;;;;;;;10.32;8.45;;;0.90;99.90;;;;;;5037463;28;20041;-77
2022/04/02 07:24:56;;;;;;;7.38;6.68;;;0.90;99.90;;;;;;5041640;28;20034;-79
2022/04/02 07:27:30;;;;;;;9.43;6.72;;;1.00;99.90;;;;;;5038354;28;20060;-74
2022/04/02 07:29:59;;;;;;;6.43;5.75;;;1.00;99.90;;;;;;5004406;28;20041;-78
2022/04/02 07:32:25;;;;;;;11.20;7.40;;;1.10;99.90;;;;;;5019984;28;20037;-74
2022/04/02 07:34:52;;;;;;;7.53;6.72;;;1.20;99.90;;;;;;5035768;28;20036;-74
2022/04/02 07:37:20;;;;;;;6.32;5.65;;;1.30;99.90;;;;;;5034651;28;20026;-74
2022/04/02 07:40:08;;;;;;;10.10;6.05;;;1.30;99.90;;;;;;5035683;28;20391;-74
2022/04/02 07:42:49;;;;;;;11.52;5.40;;;1.30;99.90;;;;;;5039172;28;20065;-74
2022/04/02 07:45:19;;;;;;;8.18;7.43;;;1.30;99.90;;;;;;5035658;28;20034;-74
2022/04/02 07:47:53;;;;;;;7.40;6.00;;;1.40;99.90;;;;;;5035134;28;20033;-75
2022/04/02 07:50:27;;;;;;;7.70;5.70;;;1.70;99.90;;;;;;5034245;28;20029;-75
2022/04/02 07:52:55;;;;;;;6.75;6.05;;;2.00;99.90;;;;;;5033450;28;20034;-75
2022/04/02 07:55:25;;;;;;;8.23;5.85;;;2.30;99.90;;;;;;5014753;28;20365;-76
2022/04/02 07:57:58;;;;;;;6.97;6.25;;;2.70;99.90;;;;;;5016215;28;20045;-77
2022/04/02 08:00:26;;;;;;;8.25;6.68;;;3.30;99.90;;;;;;5001133;28;20042;-77
2022/04/02 08:02:52;;;;;;;7.03;5.60;;;3.90;99.90;;;;;;5025042;28;20117;-76
2022/04/02 08:05:22;;;;;;;6.50;5.85;;;4.40;99.90;;;;;;5016981;28;20050;-75
2022/04/02 08:07:55;;;;;;;;;;;4.90;99.90;;;;;;5016404;28;20935;-75
2022/04/02 08:10:27;;;;;;;6.00;5.43;;;5.50;99.90;;;;;;5016449;28;19912;-76
2022/04/02 08:12:57;;;;;;;6.88;6.05;;;6.30;99.90;;;;;;5033152;28;20037;-76
2022/04/02 08:15:24;;;;;;;7.45;6.75;;;7.40;99.90;;;;;;5034256;28;20040;-78
2022/04/02 08:17:56;;;;;;;11.18;7.07;;;8.70;99.90;;;;;;5016553;28;20053;-82
2022/04/02 08:20:23;;;;;;;6.53;5.82;;;10.40;99.90;;;;;;5034050;28;20037;-78
2022/04/02 08:22:51;;;;;;;7.47;6.63;;;11.60;99.90;;;;;;5028135;28;20045;-80
2022/04/02 08:25:19;;;;;;;8.52;6.20;;;13.60;99.90;;;;;;5025591;28;20029;-78
2022/04/02 08:27:53;;;;;;;9.90;5.72;;;15.80;99.90;;;;;;5034048;28;20060;-80
2022/04/02 08:30:31;;;;;;;9.02;6.72;;;17.40;99.90;;;;;;5016045;28;20386;-80
2022/04/02 08:33:16;;;;;;;6.65;5.55;;;18.80;99.90;;;;;;5030653;28;20057;-83
2022/04/02 08:36:04;;;;;;;7.68;5.80;;;19.30;99.90;;;;;;5017101;28;20044;-84
2022/04/02 08:38:47;;;;;;;6.07;5.55;;;19.50;99.90;;;;;;5008546;28;20426;-81
2022/04/02 08:41:36;;;;;;;12.80;6.10;;;19.40;99.90;;;;;;5030218;28;20044;-81
2022/04/02 08:44:53;;;;;;;6.75;5.35;;;19.00;99.90;;;;;;5033862;28;20029;-81
2022/04/02 08:47:29;;;;;;;7.18;5.90;;;18.70;99.90;;;;;;4966033;28;20049;-81
2022/04/02 08:50:11;;;;;;;6.03;5.43;;;18.30;99.90;;;;;;5015476;28;20045;-81
2022/04/02 08:53:14;;;;;;;7.50;5.90;;;18.20;99.90;;;;;;5008812;28;20061;-83
2022/04/02 08:55:57;;;;;;;7.53;5.18;;;17.90;99.90;;;;;;5033839;28;20029;-81
2022/04/02 08:59:00;;;;;;;10.05;5.20;;;17.80;99.90;;;;;;5014784;28;20046;-81
2022/04/02 09:01:36;;;;;;;8.27;5.50;;;17.50;99.90;;;;;;5004384;28;20109;-83
2022/04/02 09:04:54;;;;;;;7.15;4.82;;;17.40;99.90;;;;;;5020281;28;20493;-83
2022/04/02 09:07:26;;;;;;;5.35;4.85;;;17.10;99.90;;;;;;4995786;28;20042;-82
2022/04/02 09:10:04;;;;;;;6.93;5.63;;;16.90;99.90;;;;;;5011879;28;20046;-82
2022/04/02 09:12:45;;;;;;;10.20;5.18;;;16.70;99.90;;;;;;5013399;28;20049;-83
2022/04/02 09:15:15;;;;;;;5.35;4.88;;;16.50;99.90;;;;;;5014791;28;20478;-83
2022/04/02 09:18:01;;;;;;;6.70;5.60;;;16.30;99.90;;;;;;5031216;28;20040;-80
2022/04/02 09:20:45;;;;;;;9.38;5.47;;;16.00;99.90;;;;;;5015724;28;20037;-82
2022/04/02 09:23:43;;;;;;;5.00;4.60;;;15.90;99.90;;;;;;5014068;28;20037;-82
2022/04/02 09:26:37;;;;;;;8.02;5.38;;;15.60;99.90;;;;;;5012181;28;20045;-80
2022/04/02 09:29:16;;;;;;;7.90;6.03;;;15.50;99.90;;;;;;5027452;28;20030;-82
2022/04/02 09:32:01;;;;;;;6.63;5.95;;;15.50;99.90;;;;;;5013432;28;20042;-82
2022/04/02 09:34:39;;;;;;;7.88;6.00;;;15.20;99.90;;;;;;5025278;28;20034;-83
2022/04/02 09:37:34;;;;;;;8.13;4.95;;;15.10;99.90;;;;;;5014376;28;20037;-81
2022/04/02 09:40:11;;;;;;;6.20;5.28;;;15.00;99.90;;;;;;5014126;28;20041;-81
2022/04/02 09:42:42;;;;;;;5.60;5.15;;;15.20;99.90;;;;;;5012989;28;20391;-81
2022/04/02 09:45:12;;;;;;;7.10;6.32;;;14.80;99.90;;;;;;5015128;28;20044;-81
2022/04/02 09:48:13;;;;;;;5.20;4.65;;;15.00;99.90;;;;;;5014867;28;20475;-80
2022/04/02 09:50:41;;;;;;;6.20;4.93;;;15.10;99.90;;;;;;5013306;28;20048;-80
2022/04/02 09:53:21;;;;;;;6.45;4.90;;;14.50;99.90;;;;;;5032453;28;20026;-81
2022/04/02 09:56:09;;;;;;;9.30;4.75;;;14.60;99.90;;;;;;5021385;28;20037;-82
2022/04/02 09:58:51;;;;;;;14.32;4.80;;;14.70;99.90;;;;;;5011257;28;20050;-83
2022/04/02 10:01:37;;;;;;;5.03;4.40;;;14.50;99.90;;;;;;4995411;28;20045;-82
2022/04/02 10:04:25;;;;;;;6.85;5.15;;;14.30;99.90;;;;;;5012236;28;20144;-81
2022/04/02 10:06:56;;;;;;;5.50;4.97;;;14.30;99.90;;;;;;5002099;28;20046;-83
2022/04/02 10:09:27;;;;;;;5.72;4.88;;;14.40;99.90;;;;;;5015037;28;20048;-84
2022/04/02 10:12:02;;;;;;;6.75;5.55;;;14.50;99.90;;;;;;5013989;28;20033;-80
2022/04/02 10:14:30;;;;;;;6.50;5.65;;;14.20;99.90;;;;;;5033110;28;20033;-84
2022/04/02 10:17:04;;;;;;;7.00;5.63;;;14.30;99.90;;;;;;5028779;28;20038;-83
2022/04/02 10:19:41;;;;;;;8.30;5.05;;;14.30;99.90;;;;;;5015989;28;20037;-82
2022/04/02 10:22:11;;;;;;;5.93;5.30;;;14.30;99.90;;;;;;5026782;28;20041;-84
2022/04/02 10:24:48;;;;;;;6.35;5.85;;;14.20;99.90;;;;;;5022931;28;20480;-83
2022/04/02 10:27:35;;;;;;;6.13;5.18;;;14.30;99.90;;;;;;5014331;28;20053;-81
2022/04/02 10:30:16;;;;;;;7.13;5.50;;;14.40;99.90;;;;;;5033133;28;20049;-82
2022/04/02 10:35:46;;;;;;;6.40;5.30;;;14.20;99.90;;;;;;5005310;28;20053;-82
2022/04/02 10:38:28;;;;;;;6.30;5.55;;;14.30;99.90;;;;;;5031803;28;20056;-83
2022/04/02 10:40:56;;;;;;;6.65;5.43;;;14.40;99.90;;;;;;5027546;28;20104;-81
2022/04/02 10:43:29;;;;;;;5.47;5.03;;;14.60;99.90;;;;;;5029592;28;20038;-79
2022/04/02 10:45:58;;;;;;;6.30;4.60;;;14.70;99.90;;;;;;5015031;28;20032;-82
2022/04/02 10:48:36;;;;;;;11.48;5.95;;;14.50;99.90;;;;;;5014368;28;20045;-79
2022/04/02 10:51:03;;;;;;;7.40;5.57;;;14.40;99.90;;;;;;5012451;28;20041;-83
2022/04/02 10:53:31;;;;;;;6.43;4.57;;;14.20;99.90;;;;;;5032433;28;20025;-80
2022/04/02 10:56:01;;;;;;;12.68;5.38;;;14.10;99.90;;;;;;5014029;28;20030;-82
2022/04/02 10:58:36;;;;;;;7.28;5.55;;;14.30;99.90;;;;;;5026861;28;20038;-81
2022/04/02 11:01:06;;;;;;;7.18;5.13;;;14.30;99.90;;;;;;5013207;28;20050;-81
2022/04/02 11:03:40;;;;;;;5.97;4.95;;;14.40;99.90;;;;;;5014259;28;20029;-79
2022/04/02 11:06:08;;;;;;;9.55;4.80;;;14.20;99.90;;;;;;5031127;28;20044;-82
2022/04/02 11:08:34;;;;;;;5.70;4.78;;;14.20;99.90;;;;;;5013200;28;20048;-80
2022/04/02 11:11:27;;;;;;;5.97;5.20;;;14.30;99.90;;;;;;5030713;28;20029;-82
2022/04/02 11:14:02;;;;;;;7.10;4.93;;;14.30;99.90;;;;;;5023660;28;20046;-83
2022/04/02 11:16:40;;;;;;;6.20;5.03;;;14.30;99.90;;;;;;5026728;28;20382;-81
2022/04/02 11:22:07;;;;;;;8.88;4.47;;;14.30;99.90;;;;;;5031213;28;20049;-81
2022/04/02 11:24:55;;;;;;;6.25;5.15;;;14.30;99.90;;;;;;5018178;28;20351;-81
2022/04/02 11:27:27;;;;;;;6.18;5.45;;;14.20;99.90;;;;;;5014392;28;20403;-80
2022/04/02 11:29:59;;;;;;;6.55;5.20;;;14.30;99.90;;;;;;5018615;28;20038;-82
2022/04/02 11:32:26;;;;;;;5.25;4.85;;;14.60;99.90;;;;;;5034380;28;20029;-82
2022/04/02 11:34:53;;;;;;;12.70;5.32;;;14.60;99.90;;;;;;5017495;28;20501;-81
2022/04/02 11:37:24;;;;;;;18.95;5.68;;;14.60;99.90;;;;;;5035248;28;20029;-82
2022/04/02 11:39:56;;;;;;;6.15;5.05;;;14.70;99.90;;;;;;5015900;28;20062;-83
2022/04/02 11:42:26;;;;;;;5.32;4.82;;;14.90;99.90;;;;;;5032787;28;20033;-80
2022/04/02 11:44:53;;;;;;;10.80;4.78;;;15.00;99.90;;;;;;5007732;28;20483;-81
2022/04/02 11:47:28;;;;;;;4.80;4.32;;;15.00;99.90;;;;;;5012334;28;20033;-81
2022/04/02 11:50:03;;;;;;;7.40;4.80;;;14.90;99.90;;;;;;5030519;28;20029;-82
2022/04/02 11:52:52;;;;;;;4.65;4.18;;;15.00;99.90;;;;;;5030092;28;20048;-81
2022/04/02 11:55:20;;;;;;;8.13;4.72;;;14.90;99.90;;;;;;5034358;28;20050;-80
2022/04/02 11:58:00;;;;;;;6.22;4.30;;;15.00;99.90;;;;;;5027717;28;20045;-80
2022/04/02 12:00:27;;;;;;;6.70;5.25;;;15.00;99.90;;;;;;5026650;28;20053;-82
2022/04/02 12:02:54;;;;;;;4.53;4.10;;;15.20;99.90;;;;;;5026525;28;20471;-82
2022/04/02 12:05:21;;;;;;;7.60;5.10;;;15.20;99.90;;;;;;5022176;28;20386;-80
2022/04/02 12:07:51;;;;;;;5.28;4.15;;;15.20;99.90;;;;;;5024087;28;20344;-79
2022/04/02 12:10:21;;;;;;;7.70;4.67;;;15.30;99.90;;;;;;5034528;28;20317;-82
2022/04/02 12:12:49;;;;;;;7.05;4.95;;;15.40;99.90;;;;;;5025347;28;20787;-81
2022/04/02 12:15:16;;;;;;;8.98;5.82;;;15.30;99.90;;;;;;5016446;28;20030;-81
2022/04/02 12:17:47;;;;;;;4.43;4.03;;;15.50;99.90;;;;;;5019995;28;20034;-81
2022/04/02 12:20:28;;;;;;;6.30;5.15;;;15.50;99.90;;;;;;5002284;28;20508;-82
2022/04/02 12:23:06;;;;;;;4.60;3.78;;;15.40;99.90;;;;;;5033133;28;20386;-80
2022/04/02 12:25:33;;;;;;;6.20;4.13;;;15.60;99.90;;;;;;5016440;28;20052;-83
2022/04/02 12:28:08;;;;;;;7.68;4.53;;;15.40;99.90;;;;;;5032498;28;20037;-81
2022/04/02 12:30:37;;;;;;;6.03;4.75;;;15.30;99.90;;;;;;5013934;28;20037;-82
2022/04/02 12:33:09;;;;;;;8.57;4.35;;;15.40;99.90;;;;;;5015964;28;20040;-83
2022/04/02 12:35:38;;;;;;;4.70;3.67;;;15.30;99.90;;;;;;5011769;28;20021;-83
2022/04/02 12:38:05;;;;;;;4.97;3.40;;;15.20;99.90;;;;;;5015637;28;20386;-83
2022/04/02 12:40:38;;;;;;;4.30;3.85;;;15.50;99.90;;;;;;5031698;28;20058;-78
2022/04/02 12:43:09;;;;;;;4.30;3.47;;;15.40;99.90;;;;;;5028666;28;20038;-78
2022/04/02 12:45:37;;;;;;;;;;;15.50;99.90;;;;;;5034448;28;20463;-79
2022/04/02 12:48:17;;;;;;;5.00;3.80;;;15.60;99.90;;;;;;5036790;28;19916;-79
2022/04/02 12:50:49;;;;;;;5.95;4.65;;;15.30;99.90;;;;;;5032408;28;20038;-79
2022/04/02 12:53:39;;;;;;;3.78;3.30;;;15.40;99.90;;;;;;5030742;28;20041;-80
2022/04/02 12:56:08;;;;;;;7.50;3.65;;;15.10;99.90;;;;;;5015532;28;20501;-77
2022/04/02 12:58:42;;;;;;;4.28;3.85;;;15.50;99.90;;;;;;5031322;28;20030;-79
2022/04/02 13:01:28;;;;;;;6.60;3.85;;;15.50;99.90;;;;;;5032315;28;20452;-79
2022/04/02 13:04:04;;;;;;;6.05;4.00;;;15.70;99.90;;;;;;5023971;28;20029;-78
2022/04/02 13:06:32;;;;;;;5.95;4.07;;;15.90;99.90;;;;;;5035775;28;20467;-79
2022/04/02 13:09:01;;;;;;;3.65;3.35;;;16.30;99.90;;;;;;5020457;28;20057;-79
2022/04/02 13:11:55;;;;;;;4.90;4.25;;;16.30;99.90;;;;;;5032963;28;20033;-79
2022/04/02 13:14:28;;;;;;;5.65;3.47;;;16.70;99.90;;;;;;5031593;28;20042;-79
2022/04/02 13:17:07;;;;;;;4.60;3.90;;;16.30;99.90;;;;;;5028078;28;20041;-81
2022/04/02 13:22:47;;;;;;;3.85;3.35;;;16.60;99.90;;;;;;5031740;28;20040;-78